Time;durP1;ratioP1;P1;durP2;ratioP2;P2;SDS_P1;SDS_P2;PMS_P1;PMS_P2;Temp;Humidity;BMP_temperature;BMP_pressure;BME280_temperature;BME280_humidity;BME280_pressure;Samples;Min_cycle;Max_cycle;Signal;HPM_P1;HPM_P2
2021/11/23 00:00:23;;;;;;;18.05;4.35;;;;;;;4.60;100.00;102454.22;4914392;29;20865;-76
2021/11/23 00:02:49;;;;;;;21.58;4.47;;;;;;;4.63;100.00;102458.44;4899257;29;20050;-76
2021/11/23 00:05:15;;;;;;;20.35;4.82;;;;;;;4.59;100.00;102460.31;4907596;29;20036;-76
2021/11/23 00:07:41;;;;;;;25.67;4.97;;;;;;;4.58;100.00;102458.66;4899325;29;20187;-76
2021/11/23 00:10:07;;;;;;;22.60;5.80;;;;;;;4.60;100.00;102450.78;4897594;29;20047;-76
2021/11/23 00:12:34;;;;;;;21.73;4.97;;;;;;;4.70;100.00;102452.06;4881054;29;20043;-76
2021/11/23 00:14:59;;;;;;;12.48;4.93;;;;;;;4.67;100.00;102455.66;4914271;29;20036;-76
2021/11/23 00:17:25;;;;;;;22.25;5.57;;;;;;;4.70;100.00;102446.03;4913228;29;20511;-77
2021/11/23 00:19:50;;;;;;;14.18;5.38;;;;;;;4.69;100.00;102455.59;4914243;29;20044;-75
2021/11/23 00:22:17;;;;;;;17.73;5.55;;;;;;;4.65;100.00;102451.41;4898292;29;20048;-76
2021/11/23 00:24:43;;;;;;;19.77;6.13;;;;;;;4.71;100.00;102456.38;4899944;29;20135;-76
2021/11/23 00:27:09;;;;;;;20.63;5.13;;;;;;;4.72;100.00;102458.03;4897901;29;20414;-76
2021/11/23 00:29:34;;;;;;;17.15;6.57;;;;;;;4.61;100.00;102452.47;4921357;29;20091;-76
2021/11/23 00:32:00;;;;;;;16.30;6.03;;;;;;;4.53;100.00;102459.75;4905360;29;20443;-77
2021/11/23 00:34:27;;;;;;;16.98;6.32;;;;;;;4.59;100.00;102459.47;4918453;29;20070;-74
2021/11/23 00:36:53;;;;;;;26.92;6.53;;;;;;;4.54;100.00;102461.44;4883470;29;20063;-75
2021/11/23 00:39:19;;;;;;;25.73;6.78;;;;;;;4.57;100.00;102458.72;4909953;29;20040;-77
2021/11/23 00:41:47;;;;;;;17.90;6.80;;;;;;;4.64;100.00;102457.53;4911398;29;20044;-76
2021/11/23 00:44:17;;;;;;;21.30;6.25;;;;;;;4.70;100.00;102454.66;4898881;29;20205;-75
2021/11/23 00:46:43;;;;;;;22.35;6.68;;;;;;;4.65;100.00;102467.88;4907043;29;20061;-75
2021/11/23 00:49:13;;;;;;;17.50;6.22;;;;;;;4.62;100.00;102472.38;4892366;29;20044;-76
2021/11/23 00:51:39;;;;;;;22.35;6.70;;;;;;;4.57;100.00;102469.94;4914052;29;20032;-76
2021/11/23 00:54:05;;;;;;;20.50;6.38;;;;;;;4.64;100.00;102475.72;4897637;29;20044;-76
2021/11/23 00:56:31;;;;;;;19.10;6.28;;;;;;;4.58;100.00;102474.25;4914520;29;20036;-75
2021/11/23 00:58:57;;;;;;;19.60;6.32;;;;;;;4.55;100.00;102465.72;4896733;29;20450;-75
2021/11/23 01:01:23;;;;;;;27.83;7.55;;;;;;;4.56;100.00;102459.59;4895395;29;20052;-77
2021/11/23 01:03:48;;;;;;;20.70;7.10;;;;;;;4.56;100.00;102463.06;4910570;29;20040;-76
2021/11/23 01:06:14;;;;;;;17.27;5.75;;;;;;;4.62;100.00;102462.81;4910397;29;20032;-76
2021/11/23 01:08:40;;;;;;;13.07;5.75;;;;;;;4.68;100.00;102452.13;4900346;29;20043;-75
2021/11/23 01:11:07;;;;;;;20.42;6.45;;;;;;;4.64;100.00;102454.94;4911525;29;20051;-77
2021/11/23 01:13:33;;;;;;;22.25;6.07;;;;;;;4.65;100.00;102461.81;4899958;29;20134;-76
2021/11/23 01:15:59;;;;;;;17.65;5.97;;;;;;;4.66;100.00;102453.13;4898819;29;20071;-77
2021/11/23 01:18:25;;;;;;;17.40;5.90;;;;;;;4.73;100.00;102451.09;4912049;29;20737;-76
2021/11/23 01:20:51;;;;;;;25.73;6.90;;;;;;;4.66;100.00;102453.13;4898505;29;20043;-76
2021/11/23 01:23:17;;;;;;;17.48;6.05;;;;;;;4.67;100.00;102453.06;4894758;29;20525;-76
2021/11/23 01:25:43;;;;;;;19.55;6.28;;;;;;;4.71;100.00;102456.38;4880258;29;20092;-74
2021/11/23 01:28:09;;;;;;;17.08;6.00;;;;;;;4.70;100.00;102466.84;4896035;29;20062;-76
2021/11/23 01:30:34;;;;;;;20.33;6.72;;;;;;;4.72;100.00;102465.84;4896548;29;20134;-76
2021/11/23 01:33:00;;;;;;;19.40;6.88;;;;;;;4.72;100.00;102455.44;4897268;29;20510;-77
2021/11/23 01:35:27;;;;;;;22.50;6.82;;;;;;;4.83;100.00;102465.38;4913948;29;20071;-76
2021/11/23 01:37:52;;;;;;;21.52;6.75;;;;;;;4.78;100.00;102462.97;4897463;29;20047;-77
2021/11/23 01:40:18;;;;;;;17.55;6.15;;;;;;;4.79;100.00;102469.03;4909828;29;20044;-76
2021/11/23 01:42:45;;;;;;;22.67;8.23;;;;;;;4.79;100.00;102469.03;4891126;29;20081;-76
2021/11/23 01:45:12;;;;;;;15.82;7.05;;;;;;;4.82;100.00;102469.75;4880785;29;20723;-76
2021/11/23 01:47:37;;;;;;;20.38;7.50;;;;;;;4.86;100.00;102449.66;4899113;29;20024;-76
2021/11/23 01:50:06;;;;;;;20.30;8.07;;;;;;;4.88;100.00;102450.44;4911358;29;20395;-76
2021/11/23 01:52:32;;;;;;;19.20;7.95;;;;;;;4.90;100.00;102442.53;4910868;29;20041;-76
2021/11/23 01:54:58;;;;;;;20.05;8.27;;;;;;;4.96;100.00;102448.31;4898989;29;20131;-77
2021/11/23 01:57:24;;;;;;;18.63;8.27;;;;;;;5.02;100.00;102450.66;4908631;29;20059;-75
2021/11/23 01:59:50;;;;;;;17.33;7.82;;;;;;;5.00;100.00;102438.63;4913469;29;20044;-77
2021/11/23 02:02:16;;;;;;;17.25;8.05;;;;;;;5.04;100.00;102437.59;4910758;29;20098;-77
2021/11/23 02:04:42;;;;;;;22.80;8.13;;;;;;;5.06;100.00;102436.59;4911945;29;20447;-77
2021/11/23 02:07:09;;;;;;;18.73;8.05;;;;;;;5.02;100.00;102434.22;4896237;29;20577;-76
2021/11/23 02:09:34;;;;;;;22.92;8.32;;;;;;;4.97;100.00;102439.63;4911992;29;20470;-77
2021/11/23 02:12:01;;;;;;;16.85;8.38;;;;;;;4.98;100.00;102438.69;4883219;29;21752;-76
2021/11/23 02:14:30;;;;;;;18.20;8.05;;;;;;;5.09;100.00;102455.59;4897879;29;20040;-77
2021/11/23 02:16:56;;;;;;;24.58;9.48;;;;;;;4.98;100.00;102449.09;4898810;29;20465;-76
2021/11/23 02:19:22;;;;;;;15.80;9.38;;;;;;;4.98;100.00;102448.28;4895034;29;20047;-76
2021/11/23 02:21:48;;;;;;;21.73;9.75;;;;;;;4.95;100.00;102440.59;4884923;29;20044;-75
2021/11/23 02:24:14;;;;;;;23.45;9.27;;;;;;;5.02;100.00;102447.22;4883046;29;20104;-75
2021/11/23 02:26:39;;;;;;;25.05;10.00;;;;;;;5.04;100.00;102450.59;4882789;29;20042;-76
2021/11/23 02:29:05;;;;;;;21.27;9.82;;;;;;;5.00;100.00;102449.03;4885753;29;20052;-77
2021/11/23 02:31:31;;;;;;;15.77;9.00;;;;;;;5.01;100.00;102442.91;4916518;29;20064;-77
2021/11/23 02:33:57;;;;;;;21.55;10.23;;;;;;;5.02;100.00;102440.25;4900607;29;20486;-76
2021/11/23 02:36:23;;;;;;;19.02;9.50;;;;;;;5.04;100.00;102435.81;4914654;29;20032;-76
2021/11/23 02:38:49;;;;;;;19.00;9.48;;;;;;;5.07;100.00;102437.47;4901050;29;20325;-77
2021/11/23 02:41:16;;;;;;;19.60;9.52;;;;;;;5.12;100.00;102440.66;4911570;29;20115;-76
2021/11/23 02:43:42;;;;;;;25.25;9.23;;;;;;;5.10;100.00;102439.06;4884841;29;20455;-77
2021/11/23 02:46:09;;;;;;;22.60;10.13;;;;;;;5.13;100.00;102444.13;4895896;29;20043;-76
2021/11/23 02:48:36;;;;;;;23.95;10.57;;;;;;;5.06;100.00;102438.34;4904443;29;20487;-77
2021/11/23 02:51:10;;;;;;;18.92;9.55;;;;;;;5.05;100.00;102441.88;4918213;29;20098;-77
2021/11/23 02:53:36;;;;;;;16.60;10.20;;;;;;;5.06;100.00;102440.97;4895799;29;20526;-77
2021/11/23 02:56:04;;;;;;;21.63;10.55;;;;;;;5.16;100.00;102444.84;4903970;29;20044;-76
2021/11/23 02:58:30;;;;;;;18.77;10.30;;;;;;;5.12;100.00;102430.25;4911999;29;20099;-76
2021/11/23 03:01:03;;;;;;;16.63;10.05;;;;;;;5.18;100.00;102434.34;4915766;29;20059;-76
2021/11/23 03:03:28;;;;;;;17.92;10.48;;;;;;;5.12;100.00;102424.22;4891212;29;20061;-76
2021/11/23 03:05:57;;;;;;;19.33;11.07;;;;;;;5.12;100.00;102424.22;4915707;29;20060;-77
2021/11/23 03:08:23;;;;;;;24.25;10.57;;;;;;;5.12;100.00;102426.81;4915356;29;20039;-78
2021/11/23 03:10:49;;;;;;;16.98;11.30;;;;;;;5.09;100.00;102427.00;4901100;29;20223;-77
2021/11/23 03:13:15;;;;;;;21.17;10.88;;;;;;;5.07;100.00;102430.50;4891281;29;20050;-76
2021/11/23 03:15:41;;;;;;;25.02;10.90;;;;;;;5.10;100.00;102421.69;4916968;29;20625;-77
2021/11/23 03:18:09;;;;;;;20.90;11.00;;;;;;;5.21;100.00;102424.66;4900801;29;20066;-77
2021/11/23 03:20:36;;;;;;;17.33;11.77;;;;;;;5.22;100.00;102420.31;4902655;29;20047;-76
2021/11/23 03:23:02;;;;;;;20.35;11.75;;;;;;;5.23;100.00;102432.38;4898570;29;20044;-78
2021/11/23 03:25:28;;;;;;;20.75;12.02;;;;;;;5.25;100.00;102426.22;4913765;29;20043;-77
2021/11/23 03:27:54;;;;;;;19.95;11.60;;;;;;;5.26;100.00;102425.28;4902015;29;20044;-77
2021/11/23 03:30:24;;;;;;;26.25;12.95;;;;;;;5.24;100.00;102421.09;4900443;29;20068;-76
2021/11/23 03:32:51;;;;;;;17.92;11.80;;;;;;;5.19;100.00;102412.63;4885044;29;20036;-77
2021/11/23 03:35:18;;;;;;;22.45;12.20;;;;;;;5.15;100.00;102403.28;4902137;29;20046;-76
2021/11/23 03:37:45;;;;;;;23.05;11.93;;;;;;;5.04;100.00;102404.59;4909685;29;20068;-77
2021/11/23 03:40:11;;;;;;;16.88;12.00;;;;;;;4.99;100.00;102403.13;4915168;29;20123;-77
2021/11/23 03:42:37;;;;;;;24.00;12.60;;;;;;;4.92;100.00;102414.75;4902345;29;20123;-76
2021/11/23 03:45:03;;;;;;;22.25;12.32;;;;;;;4.87;100.00;102412.34;4903728;29;20036;-77
2021/11/23 03:47:33;;;;;;;18.77;12.02;;;;;;;4.86;100.00;102415.88;4902887;29;20047;-77
2021/11/23 03:49:59;;;;;;;26.15;12.10;;;;;;;4.82;100.00;102409.94;4888021;29;20597;-77
2021/11/23 03:52:25;;;;;;;20.90;11.60;;;;;;;4.72;100.00;102397.41;4897049;29;20052;-78
2021/11/23 03:54:51;;;;;;;25.10;12.13;;;;;;;4.67;100.00;102406.28;4903138;29;20170;-77
2021/11/23 03:57:17;;;;;;;19.60;11.88;;;;;;;4.73;100.00;102409.50;4903858;29;20044;-76
2021/11/23 03:59:47;;;;;;;21.85;11.02;;;;;;;4.64;100.00;102408.16;4888528;29;20036;-77
2021/11/23 04:02:22;;;;;;;28.02;12.02;;;;;;;4.67;100.00;102402.81;4897226;29;20044;-76
2021/11/23 04:04:48;;;;;;;23.55;12.68;;;;;;;4.63;100.00;102394.31;4882336;29;20048;-76
2021/11/23 04:07:15;;;;;;;19.92;11.25;;;;;;;4.68;100.00;102402.75;4918075;29;20134;-77
2021/11/23 04:09:41;;;;;;;18.33;10.75;;;;;;;4.63;100.00;102403.84;4918258;29;20035;-76
2021/11/23 04:12:08;;;;;;;21.02;11.30;;;;;;;4.61;100.00;102400.47;4919880;29;20036;-78
2021/11/23 04:14:34;;;;;;;22.33;10.68;;;;;;;4.38;100.00;102391.94;4921773;29;20099;-77
2021/11/23 04:17:00;;;;;;;19.50;10.48;;;;;;;4.29;100.00;102405.31;4911590;29;20048;-77
2021/11/23 04:19:28;;;;;;;18.23;11.68;;;;;;;4.17;100.00;102403.25;4918387;29;20048;-77
2021/11/23 04:21:56;;;;;;;17.25;10.18;;;;;;;4.17;100.00;102395.44;4907016;29;20048;-77
2021/11/23 04:24:22;;;;;;;20.30;10.70;;;;;;;4.24;100.00;102395.13;4918356;29;20020;-76
2021/11/23 04:26:47;;;;;;;21.35;11.75;;;;;;;4.26;100.00;102393.31;4907030;29;20122;-76
2021/11/23 04:29:13;;;;;;;29.05;13.40;;;;;;;4.53;100.00;102400.81;4919051;29;20059;-76
2021/11/23 04:31:38;;;;;;;32.20;13.13;;;;;;;4.58;100.00;102401.47;4900708;29;20036;-76
2021/11/23 04:34:04;;;;;;;29.33;14.48;;;;;;;4.69;100.00;102414.00;4906450;29;20554;-77
2021/11/23 04:36:30;;;;;;;41.17;15.23;;;;;;;4.75;100.00;102416.31;4906440;29;20040;-77
2021/11/23 04:38:55;;;;;;;40.28;16.70;;;;;;;4.87;100.00;102426.16;4892694;29;20048;-77
2021/11/23 04:41:21;;;;;;;39.40;17.30;;;;;;;4.98;100.00;102419.66;4905058;29;20040;-77
2021/11/23 04:43:46;;;;;;;43.20;18.20;;;;;;;5.00;100.00;102423.88;4901708;29;20044;-77
2021/11/23 04:46:12;;;;;;;45.42;19.17;;;;;;;5.06;100.00;102422.75;4917533;29;20459;-77
2021/11/23 04:48:38;;;;;;;40.80;18.40;;;;;;;5.14;100.00;102418.06;4906418;29;20036;-76
2021/11/23 04:51:03;;;;;;;59.15;21.55;;;;;;;5.19;100.00;102425.63;4921221;29;20044;-77
2021/11/23 04:53:29;;;;;;;41.58;20.33;;;;;;;5.24;100.00;102431.50;4904313;29;20040;-77
2021/11/23 04:55:55;;;;;;;54.45;21.58;;;;;;;5.30;100.00;102428.59;4904654;29;20051;-77
2021/11/23 04:58:20;;;;;;;48.47;20.48;;;;;;;5.38;100.00;102438.66;4919207;29;20043;-76
2021/11/23 05:00:46;;;;;;;47.10;20.85;;;;;;;5.37;100.00;102434.34;4907376;29;20040;-76
2021/11/23 05:03:12;;;;;;;47.53;21.38;;;;;;;5.43;100.00;102434.06;4917483;29;20036;-76
2021/11/23 05:05:37;;;;;;;55.60;22.10;;;;;;;5.40;100.00;102431.59;4905061;29;20395;-77
2021/11/23 05:08:03;;;;;;;47.15;21.85;;;;;;;5.36;100.00;102433.50;4912200;29;20060;-76
2021/11/23 05:10:29;;;;;;;57.42;22.23;;;;;;;5.33;100.00;102433.66;4920581;29;20763;-77
2021/11/23 05:12:54;;;;;;;44.72;22.38;;;;;;;5.42;100.00;102450.59;4903694;29;20466;-77
2021/11/23 05:15:20;;;;;;;60.88;22.85;;;;;;;5.40;100.00;102444.63;4902487;29;20044;-77
2021/11/23 05:17:46;;;;;;;47.92;20.85;;;;;;;5.50;100.00;102445.03;4887584;29;20043;-76
2021/11/23 05:20:12;;;;;;;54.00;21.55;;;;;;;5.52;100.00;102445.78;4903569;29;20554;-77
2021/11/23 05:22:38;;;;;;;50.05;21.67;;;;;;;5.46;100.00;102437.38;4920686;29;20044;-76
2021/11/23 05:25:06;;;;;;;58.08;20.60;;;;;;;5.48;100.00;102434.69;4904198;29;20360;-76
2021/11/23 05:27:32;;;;;;;44.78;21.67;;;;;;;5.58;100.00;102437.72;4903420;29;20099;-76
2021/11/23 05:29:59;;;;;;;44.42;21.23;;;;;;;5.51;100.00;102442.34;4904760;29;20400;-76
2021/11/23 05:32:26;;;;;;;44.42;20.10;;;;;;;5.36;100.00;102441.31;4904920;29;20150;-76
2021/11/23 05:34:51;;;;;;;44.10;19.67;;;;;;;5.26;100.00;102430.50;4886589;29;20047;-77
2021/11/23 05:37:17;;;;;;;41.33;19.23;;;;;;;5.15;100.00;102427.53;4899081;29;20052;-77
2021/11/23 05:39:42;;;;;;;35.08;17.83;;;;;;;5.05;100.00;102428.88;4918808;29;20048;-77
2021/11/23 05:42:08;;;;;;;36.45;17.05;;;;;;;4.98;100.00;102430.91;4904252;29;20044;-77
2021/11/23 05:44:34;;;;;;;38.35;16.90;;;;;;;4.91;100.00;102442.47;4919130;29;20063;-76
2021/11/23 05:47:00;;;;;;;40.03;17.73;;;;;;;4.82;100.00;102428.16;4897954;29;20032;-78
2021/11/23 05:49:26;;;;;;;29.90;16.95;;;;;;;4.88;100.00;102440.03;4902706;29;20051;-77
2021/11/23 05:51:54;;;;;;;38.05;16.85;;;;;;;4.86;100.00;102439.25;4903204;29;20036;-77
2021/11/23 05:54:20;;;;;;;39.03;17.08;;;;;;;4.89;100.00;102428.72;4893649;29;20044;-77
2021/11/23 05:56:45;;;;;;;34.60;16.50;;;;;;;4.88;100.00;102427.03;4904011;29;20349;-76
2021/11/23 05:59:11;;;;;;;39.03;16.60;;;;;;;4.89;100.00;102428.72;4915992;29;20036;-76
2021/11/23 06:01:36;;;;;;;32.97;16.33;;;;;;;4.84;100.00;102444.53;4904921;29;20032;-76
2021/11/23 06:04:02;;;;;;;36.38;16.48;;;;;;;4.89;100.00;102444.31;4905404;29;20415;-76
2021/11/23 06:06:28;;;;;;;32.45;16.00;;;;;;;4.87;100.00;102443.53;4899629;29;20068;-78
2021/11/23 06:08:54;;;;;;;40.53;16.65;;;;;;;4.78;100.00;102436.97;4901091;29;20047;-77
2021/11/23 06:11:20;;;;;;;39.95;16.27;;;;;;;4.80;100.00;102442.09;4904861;29;20055;-77
2021/11/23 06:13:47;;;;;;;36.67;16.45;;;;;;;4.79;100.00;102443.03;4905702;29;20036;-77
2021/11/23 06:16:15;;;;;;;38.55;14.93;;;;;;;4.67;100.00;102440.06;4889104;29;20036;-77
2021/11/23 06:18:41;;;;;;;33.85;13.60;;;;;;;4.68;100.00;102440.91;4887290;29;20052;-76
2021/11/23 06:21:08;;;;;;;25.88;13.65;;;;;;;4.56;100.00;102442.28;4905569;29;20039;-77
2021/11/23 06:23:35;;;;;;;38.83;14.82;;;;;;;4.64;100.00;102447.16;4906140;29;20044;-76
2021/11/23 06:26:01;;;;;;;35.47;15.00;;;;;;;4.62;100.00;102448.97;4920123;29;20081;-77
2021/11/23 06:28:27;;;;;;;31.83;13.63;;;;;;;4.62;100.00;102454.16;4906671;29;20113;-77
2021/11/23 06:30:54;;;;;;;25.25;12.95;;;;;;;4.66;100.00;102453.94;4889331;29;20082;-76
2021/11/23 06:33:20;;;;;;;30.67;14.10;;;;;;;4.70;100.00;102456.44;4904278;29;20028;-77
2021/11/23 06:35:46;;;;;;;31.00;13.88;;;;;;;4.81;100.00;102462.00;4902197;29;20044;-76
2021/11/23 06:38:11;;;;;;;32.40;15.32;;;;;;;4.86;100.00;102475.66;4910630;29;20685;-77
2021/11/23 06:40:38;;;;;;;37.70;14.68;;;;;;;4.91;100.00;102472.84;4897617;29;20474;-78
2021/11/23 06:43:07;;;;;;;37.85;13.50;;;;;;;4.83;100.00;102474.03;4885099;29;20055;-76
2021/11/23 06:45:35;;;;;;;33.13;13.55;;;;;;;4.84;100.00;102477.47;4921988;29;20070;-76
2021/11/23 06:48:00;;;;;;;41.13;13.93;;;;;;;4.84;100.00;102480.06;4921883;29;20380;-76
2021/11/23 06:50:32;;;;;;;36.28;13.25;;;;;;;4.89;100.00;102488.50;4915511;29;20047;-76
2021/11/23 06:53:05;;;;;;;36.30;14.38;;;;;;;4.90;100.00;102481.56;4904149;29;20047;-76
2021/11/23 06:55:31;;;;;;;32.72;13.35;;;;;;;4.92;100.00;102480.59;4902433;29;20044;-75
2021/11/23 06:57:57;;;;;;;41.42;14.52;;;;;;;4.99;100.00;102482.00;4903718;29;20142;-75
2021/11/23 07:00:23;;;;;;;36.83;14.65;;;;;;;5.03;100.00;102491.38;4886761;29;20511;-76
2021/11/23 07:02:50;;;;;;;46.33;14.80;;;;;;;5.11;100.00;102495.38;4902483;29;20043;-77
2021/11/23 07:05:16;;;;;;;40.97;13.95;;;;;;;5.06;100.00;102493.81;4902553;29;20091;-76
2021/11/23 07:07:43;;;;;;;45.55;13.48;;;;;;;5.03;100.00;102475.75;4890190;29;20052;-77
2021/11/23 07:10:13;;;;;;;42.28;13.60;;;;;;;5.22;100.00;102494.00;4913506;29;20036;-75
2021/11/23 07:12:39;;;;;;;42.38;12.88;;;;;;;5.17;100.00;102490.75;4884258;29;20491;-76
2021/11/23 07:15:06;;;;;;;50.55;13.68;;;;;;;5.13;100.00;102494.41;4916507;29;20076;-76
2021/11/23 07:17:32;;;;;;;28.95;11.50;;;;;;;5.10;100.00;102494.53;4916314;29;20033;-76
2021/11/23 07:19:57;;;;;;;43.45;11.63;;;;;;;5.14;100.00;102495.22;4903074;29;20135;-76
2021/11/23 07:22:23;;;;;;;32.05;10.98;;;;;;;5.10;100.00;102491.91;4901675;29;20393;-76
2021/11/23 07:24:49;;;;;;;47.70;11.52;;;;;;;5.06;100.00;102492.97;4915664;29;20032;-77
2021/11/23 07:27:15;;;;;;;37.30;10.18;;;;;;;5.11;100.00;102503.19;4900444;29;20047;-75
2021/11/23 07:29:41;;;;;;;32.97;10.27;;;;;;;4.92;100.00;102490.16;4900343;29;20046;-78
2021/11/23 07:32:11;;;;;;;27.77;9.05;;;;;;;4.93;100.00;102508.25;4900883;29;20142;-77
2021/11/23 07:34:38;;;;;;;30.80;8.82;;;;;;;4.90;100.00;102507.56;4902516;29;20054;-76
2021/11/23 07:37:03;;;;;;;37.72;9.40;;;;;;;4.83;100.00;102513.03;4902197;29;20067;-76
2021/11/23 07:39:29;;;;;;;22.58;7.65;;;;;;;4.83;100.00;102510.41;4904690;29;20052;-77
2021/11/23 07:41:55;;;;;;;20.15;7.50;;;;;;;4.74;100.00;102503.00;4917410;29;20084;-77
2021/11/23 07:44:22;;;;;;;23.08;7.10;;;;;;;4.78;100.00;102508.94;4918486;29;20063;-76
2021/11/23 07:46:48;;;;;;;29.15;7.43;;;;;;;4.79;100.00;102510.63;4908488;29;20104;-77
2021/11/23 07:49:14;;;;;;;18.65;7.00;;;;;;;4.80;100.00;102510.56;4921072;29;20078;-77
2021/11/23 07:51:40;;;;;;;30.65;7.85;;;;;;;4.80;100.00;102515.78;4906384;29;20103;-77
2021/11/23 07:54:06;;;;;;;32.10;7.43;;;;;;;4.88;100.00;102523.25;4888878;29;20075;-76
2021/11/23 07:56:32;;;;;;;26.40;6.63;;;;;;;4.94;100.00;102515.16;4905236;29;20060;-77
2021/11/23 07:58:59;;;;;;;23.30;7.18;;;;;;;4.92;100.00;102516.16;4901439;29;20040;-76
2021/11/23 08:01:25;;;;;;;41.92;6.47;;;;;;;4.82;100.00;102513.09;4902724;29;20040;-78
2021/11/23 08:03:51;;;;;;;26.20;5.75;;;;;;;4.86;100.00;102519.88;4904088;29;20180;-77
2021/11/23 08:06:18;;;;;;;23.10;5.90;;;;;;;4.83;100.00;102520.00;4898769;29;20530;-76
2021/11/23 08:08:44;;;;;;;18.65;6.15;;;;;;;4.83;100.00;102522.59;4903983;29;20055;-74
2021/11/23 08:11:11;;;;;;;32.45;5.88;;;;;;;4.82;100.00;102526.94;4883912;29;20031;-77
2021/11/23 08:13:37;;;;;;;33.58;6.10;;;;;;;4.80;100.00;102533.97;4906634;29;20044;-76
2021/11/23 08:16:03;;;;;;;23.55;5.70;;;;;;;4.78;100.00;102520.16;4903915;29;20040;-76
2021/11/23 08:18:34;;;;;;;22.02;6.40;;;;;;;4.83;100.00;102527.78;4908685;29;20082;-75
2021/11/23 08:21:01;;;;;;;24.85;5.93;;;;;;;4.87;100.00;102532.78;4922380;29;20036;-77
2021/11/23 08:23:27;;;;;;;17.77;5.47;;;;;;;4.89;100.00;102524.91;4905494;29;20062;-75
2021/11/23 08:25:54;;;;;;;23.40;5.97;;;;;;;4.93;100.00;102530.84;4905911;29;20063;-75
2021/11/23 08:28:26;;;;;;;16.80;5.03;;;;;;;4.92;100.00;102534.38;4884893;29;20051;-76
2021/11/23 08:30:55;;;;;;;23.98;5.93;;;;;;;4.99;100.00;102534.03;4905534;29;20040;-76
2021/11/23 08:33:22;;;;;;;26.17;5.97;;;;;;;4.97;100.00;102538.44;4918618;29;20032;-76
2021/11/23 08:35:48;;;;;;;18.55;5.22;;;;;;;4.91;100.00;102535.25;4906595;29;20044;-75
2021/11/23 08:38:14;;;;;;;16.20;5.03;;;;;;;4.85;100.00;102541.56;4920872;29;20032;-76
2021/11/23 08:40:39;;;;;;;16.25;4.63;;;;;;;4.85;100.00;102541.56;4889814;29;20043;-76
2021/11/23 08:43:07;;;;;;;19.40;4.57;;;;;;;4.90;100.00;102544.81;4901460;29;20052;-76
2021/11/23 08:45:33;;;;;;;19.80;4.63;;;;;;;4.94;100.00;102548.97;4919407;29;20039;-76
2021/11/23 08:47:58;;;;;;;21.08;4.90;;;;;;;5.05;100.00;102558.94;4911470;29;20044;-76
2021/11/23 08:50:25;;;;;;;29.25;4.97;;;;;;;5.12;100.00;102541.28;4904083;29;20104;-76
2021/11/23 08:52:50;;;;;;;33.95;6.03;;;;;;;5.28;100.00;102544.91;4889988;29;20066;-76
2021/11/23 08:55:16;;;;;;;30.63;6.10;;;;;;;5.34;100.00;102546.41;4919207;29;20093;-77
2021/11/23 08:57:42;;;;;;;28.85;7.28;;;;;;;5.45;100.00;102546.75;4904126;29;20765;-76
2021/11/23 09:00:14;;;;;;;34.58;6.75;;;;;;;5.49;100.00;102545.69;4904216;29;20065;-77
2021/11/23 09:02:42;;;;;;;32.50;7.70;;;;;;;5.59;100.00;102556.53;4889399;29;20048;-75
2021/11/23 09:05:10;;;;;;;29.08;7.22;;;;;;;5.69;100.00;102550.00;4888938;29;20058;-76
2021/11/23 09:07:37;;;;;;;24.65;7.75;;;;;;;5.80;100.00;102552.09;4904788;29;20039;-76
2021/11/23 09:10:04;;;;;;;25.02;7.78;;;;;;;5.88;100.00;102555.22;4904220;29;20040;-77
2021/11/23 09:12:30;;;;;;;26.63;8.27;;;;;;;6.06;100.00;102558.72;4919921;29;20027;-76
2021/11/23 09:14:56;;;;;;;31.60;8.93;;;;;;;6.16;100.00;102556.53;4901236;29;20496;-76
2021/11/23 09:17:21;;;;;;;26.77;8.50;;;;;;;6.32;100.00;102567.91;4888079;29;20163;-76
2021/11/23 09:19:47;;;;;;;34.08;9.13;;;;;;;6.58;100.00;102569.25;4904409;29;20048;-75
2021/11/23 09:22:13;;;;;;;37.50;9.55;;;;;;;6.83;100.00;102570.63;4918597;29;20514;-76
2021/11/23 09:24:39;;;;;;;30.30;9.95;;;;;;;6.97;100.00;102562.97;4900096;29;20499;-76
2021/11/23 09:27:04;;;;;;;25.20;9.25;;;;;;;7.03;100.00;102577.47;4885241;29;20040;-77
2021/11/23 09:29:30;;;;;;;22.17;7.75;;;;;;;6.98;100.00;102572.44;4897605;29;20096;-76
2021/11/23 09:31:58;;;;;;;25.13;8.40;;;;;;;6.98;100.00;102571.63;4902568;29;20044;-77
2021/11/23 09:34:24;;;;;;;22.30;7.88;;;;;;;6.86;100.00;102565.28;4885666;29;20040;-75
2021/11/23 09:36:51;;;;;;;24.38;8.60;;;;;;;6.84;100.00;102580.16;4903060;29;20502;-76
2021/11/23 09:39:17;;;;;;;23.45;8.20;;;;;;;6.81;100.00;102583.75;4894742;29;20052;-76
2021/11/23 09:41:43;;;;;;;26.30;8.07;;;;;;;6.81;100.00;102581.13;4896144;29;20506;-76
2021/11/23 09:44:09;;;;;;;30.20;9.50;;;;;;;6.81;100.00;102583.75;4895549;29;20036;-76
2021/11/23 09:46:37;;;;;;;24.98;9.23;;;;;;;6.83;100.00;102578.44;4910838;29;20107;-76
2021/11/23 09:49:04;;;;;;;28.05;8.95;;;;;;;6.90;100.00;102572.00;4877864;29;20036;-76
2021/11/23 09:51:32;;;;;;;20.55;8.52;;;;;;;7.00;100.00;102575.00;4895597;29;20036;-75
2021/11/23 09:53:59;;;;;;;21.15;8.40;;;;;;;7.06;100.00;102576.44;4890644;29;20183;-76
2021/11/23 09:56:25;;;;;;;21.33;7.97;;;;;;;7.13;100.00;102573.44;4910952;29;20542;-77
2021/11/23 09:58:55;;;;;;;22.23;7.75;;;;;;;7.15;100.00;102575.97;4898851;29;20167;-76
2021/11/23 10:01:28;;;;;;;19.50;7.10;;;;;;;7.26;100.00;102584.09;4899927;29;20036;-76
2021/11/23 10:03:55;;;;;;;24.05;7.22;;;;;;;7.45;100.00;102580.53;4913807;29;20040;-76
2021/11/23 10:06:24;;;;;;;22.45;7.13;;;;;;;7.60;100.00;102582.31;4886561;29;20051;-76
2021/11/23 10:08:53;;;;;;;15.30;6.53;;;;;;;7.66;100.00;102575.91;4914239;29;20265;-77
2021/11/23 10:11:24;;;;;;;19.15;6.72;;;;;;;7.68;100.00;102577.50;4898037;29;20039;-76
2021/11/23 10:13:53;;;;;;;17.88;6.38;;;;;;;7.67;100.00;102575.84;4904082;29;20044;-75
2021/11/23 10:16:20;;;;;;;17.30;6.25;;;;;;;7.58;100.00;102579.78;4900343;29;20063;-76
2021/11/23 10:18:50;;;;;;;14.30;5.68;;;;;;;7.62;100.00;102575.25;4900273;29;20123;-76
2021/11/23 10:21:19;;;;;;;23.00;6.70;;;;;;;7.68;100.00;102571.44;4901037;29;20054;-77
2021/11/23 10:23:47;;;;;;;16.25;6.00;;;;;;;7.82;100.00;102578.53;4916860;29;20087;-74
2021/11/23 10:26:14;;;;;;;18.67;5.85;;;;;;;7.94;100.00;102576.09;4897551;29;20388;-76
2021/11/23 10:28:52;;;;;;;17.08;5.60;;;;;;;8.03;100.00;102577.38;4916527;29;20040;-77
2021/11/23 10:31:19;;;;;;;20.88;6.03;;;;;;;8.10;100.00;102583.09;4886325;29;20045;-76
2021/11/23 10:33:45;;;;;;;12.98;5.18;;;;;;;8.22;100.00;102576.34;4896187;29;20047;-77
2021/11/23 10:36:19;;;;;;;12.00;4.38;;;;;;;8.28;100.00;102582.06;4910343;29;20044;-76
2021/11/23 10:38:45;;;;;;;16.38;4.00;;;;;;;8.39;100.00;102578.84;4900126;29;20035;-77
2021/11/23 10:41:16;;;;;;;13.15;4.45;;;;;;;8.44;100.00;102579.47;4899434;29;20127;-76
2021/11/23 10:43:44;;;;;;;13.90;4.38;;;;;;;8.41;100.00;102574.38;4910042;29;20036;-76
2021/11/23 10:46:16;;;;;;;18.33;4.47;;;;;;;8.40;100.00;102577.94;4883538;29;20050;-77
2021/11/23 10:48:50;;;;;;;10.02;3.78;;;;;;;8.35;100.00;102569.50;4912427;29;20049;-77
2021/11/23 10:51:16;;;;;;;8.80;3.17;;;;;;;8.27;100.00;102580.38;4913552;29;20156;-77
2021/11/23 10:53:42;;;;;;;12.15;3.65;;;;;;;8.30;100.00;102571.53;4900067;29;20028;-77
2021/11/23 10:56:12;;;;;;;13.68;3.33;;;;;;;8.29;100.00;102589.00;4898229;29;20096;-76
2021/11/23 10:58:40;;;;;;;11.70;2.80;;;;;;;8.18;100.00;102584.34;4914747;29;20615;-76
2021/11/23 11:01:07;;;;;;;12.85;2.88;;;;;;;8.22;100.00;102577.19;4912019;29;20032;-75
2021/11/23 11:03:34;;;;;;;6.75;2.72;;;;;;;8.18;100.00;102571.28;4893046;29;20040;-75
2021/11/23 11:06:02;;;;;;;8.93;3.28;;;;;;;8.22;100.00;102568.50;4896288;29;20075;-74
2021/11/23 11:08:34;;;;;;;9.57;3.10;;;;;;;8.26;100.00;102578.69;4909207;29;20032;-74
2021/11/23 11:11:00;;;;;;;13.77;3.60;;;;;;;8.24;100.00;102571.88;4895540;29;21874;-74